Long Barn, California
Current Conditions -  °F | °C
As of 12:35 PM on Tuesday 21 Oct 2014 (Local Time) from KO22 Reporting Station
Clear Clear  
Wind Chill: 68°   Ceiling: Unl
Heat Index: 68°   Visibility: 10mi
Dew Point: 36°   Wind: 6mph
Humidity: 30%   Direction: 280°W
Pressure: 30.03"   Gusts: NA
Location:  38.09°N, 120.13°W
Report Text: KO22 211935Z AUTO 28005KT 10SM CLR 20/02 A3003 RMK AO1
Loading
Personal Weather Stations






























Interactive Weather Map
Tropical Storm Tracking
New forecast layout! Learn more

10-Day Weather Forecast

Advertisements
Track Severe Weather on mobile